Time;durP1;ratioP1;P1;durP2;ratioP2;P2;SDS_P1;SDS_P2;PMS_P1;PMS_P2;Temp;Humidity;BMP_temperature;BMP_pressure;BME280_temperature;BME280_humidity;BME280_pressure;Samples;Min_cycle;Max_cycle;Signal;HPM_P1;HPM_P2
2023/01/24 00:01:49;;;;;;;12.53;9.90;;;5.40;99.90;;;;;;5054965;28;20210;-56
2023/01/24 00:04:17;;;;;;;12.37;9.33;;;5.40;99.90;;;;;;5054241;28;20226;-56
2023/01/24 00:06:44;;;;;;;11.27;8.80;;;5.40;99.90;;;;;;5054602;28;20210;-55
2023/01/24 00:09:11;;;;;;;12.13;9.53;;;5.30;99.90;;;;;;5054718;28;20217;-55
2023/01/24 00:11:37;;;;;;;11.67;9.13;;;5.20;99.90;;;;;;5054348;28;20225;-55
2023/01/24 00:14:04;;;;;;;11.53;9.30;;;5.10;99.90;;;;;;5054301;28;20229;-54
2023/01/24 00:16:31;;;;;;;11.43;9.87;;;5.00;99.90;;;;;;5053924;28;20217;-55
2023/01/24 00:18:57;;;;;;;13.57;10.27;;;5.00;99.90;;;;;;5053922;28;20214;-54
2023/01/24 00:21:26;;;;;;;12.87;10.20;;;5.00;99.90;;;;;;5054028;28;20247;-55
2023/01/24 00:23:54;;;;;;;11.97;10.03;;;5.10;99.90;;;;;;5053615;28;20233;-55
2023/01/24 00:26:22;;;;;;;13.30;10.20;;;5.10;99.90;;;;;;5054038;28;20213;-56
2023/01/24 00:28:50;;;;;;;14.47;10.80;;;5.10;99.90;;;;;;5053844;28;20211;-56
2023/01/24 00:31:17;;;;;;;11.83;9.93;;;5.10;99.90;;;;;;5053504;28;20229;-55
2023/01/24 00:33:44;;;;;;;14.23;10.87;;;5.20;99.90;;;;;;5054102;28;20233;-56
2023/01/24 00:36:11;;;;;;;14.07;10.77;;;5.20;99.90;;;;;;5053850;28;20205;-54
2023/01/24 00:38:39;;;;;;;12.67;10.10;;;5.20;99.90;;;;;;5053408;28;20617;-56
2023/01/24 00:41:06;;;;;;;15.67;11.03;;;5.20;99.90;;;;;;5053765;28;20289;-56
2023/01/24 00:43:33;;;;;;;12.43;9.90;;;5.20;99.90;;;;;;5053537;28;20540;-55
2023/01/24 00:46:00;;;;;;;13.27;10.40;;;5.20;99.90;;;;;;5053299;28;20271;-54
2023/01/24 00:48:26;;;;;;;12.90;9.80;;;5.10;99.90;;;;;;5053663;28;20289;-55
2023/01/24 00:50:53;;;;;;;13.47;9.90;;;5.00;99.90;;;;;;5053539;28;20206;-55
2023/01/24 00:53:20;;;;;;;14.37;11.40;;;5.00;99.90;;;;;;5052405;28;20233;-55
2023/01/24 00:55:50;;;;;;;14.20;10.73;;;5.00;99.90;;;;;;5053096;28;20466;-54
2023/01/24 00:58:17;;;;;;;12.83;11.00;;;5.00;99.90;;;;;;5053252;28;20264;-55
2023/01/24 01:00:44;;;;;;;13.03;10.20;;;5.10;99.90;;;;;;5053346;28;20605;-54
2023/01/24 01:03:13;;;;;;;16.33;11.07;;;5.10;99.90;;;;;;5053488;28;20206;-54
2023/01/24 01:05:40;;;;;;;14.17;11.20;;;5.10;99.90;;;;;;5052991;28;20209;-54
2023/01/24 01:08:07;;;;;;;13.63;10.47;;;5.20;99.90;;;;;;5053292;28;20209;-55
2023/01/24 01:10:34;;;;;;;14.00;10.43;;;5.20;99.90;;;;;;5053352;28;20670;-56
2023/01/24 01:13:02;;;;;;;13.77;10.93;;;5.10;99.90;;;;;;5052765;28;20221;-54
2023/01/24 01:15:30;;;;;;;14.23;11.03;;;5.00;99.90;;;;;;5052942;28;20210;-54
2023/01/24 01:17:58;;;;;;;12.90;10.10;;;5.10;99.90;;;;;;5052817;28;20666;-54
2023/01/24 01:20:24;;;;;;;14.53;11.10;;;5.10;99.90;;;;;;5052994;28;20205;-54
2023/01/24 01:22:51;;;;;;;13.17;10.10;;;5.10;99.90;;;;;;5052810;28;20213;-55
2023/01/24 01:25:18;;;;;;;14.63;11.73;;;5.10;99.90;;;;;;5052374;28;20735;-58
2023/01/24 01:27:44;;;;;;;15.27;11.53;;;5.10;99.90;;;;;;5052684;28;20210;-55
2023/01/24 01:30:13;;;;;;;11.20;9.33;;;5.30;99.90;;;;;;5052894;28;20232;-55
2023/01/24 01:32:40;;;;;;;13.90;11.00;;;5.30;99.90;;;;;;5052520;28;20225;-54
2023/01/24 01:35:07;;;;;;;12.80;10.23;;;5.20;99.90;;;;;;5052482;28;20229;-55
2023/01/24 01:37:33;;;;;;;13.20;10.23;;;5.20;99.90;;;;;;5052594;28;20619;-55
2023/01/24 01:40:01;;;;;;;13.53;10.23;;;5.20;99.90;;;;;;5052498;28;20232;-54
2023/01/24 01:42:41;;;;;;;11.47;9.23;;;5.20;99.90;;;;;;5052549;28;20695;-55
2023/01/24 01:45:33;;;;;;;12.73;9.23;;;5.10;99.90;;;;;;5052412;28;20225;-55
2023/01/24 01:48:02;;;;;;;13.50;9.57;;;5.10;99.90;;;;;;5052618;28;20205;-55
2023/01/24 01:50:35;;;;;;;13.80;9.30;;;5.20;99.90;;;;;;5052364;28;20209;-55
2023/01/24 01:53:02;;;;;;;12.33;9.60;;;5.10;99.90;;;;;;5052476;28;20233;-55
2023/01/24 01:55:34;;;;;;;12.27;9.27;;;5.20;99.90;;;;;;5052206;28;20666;-55
2023/01/24 01:58:02;;;;;;;11.13;8.93;;;5.20;99.90;;;;;;5052355;28;20665;-55
2023/01/24 02:00:29;;;;;;;13.13;10.07;;;5.20;99.90;;;;;;5052392;28;20217;-54
2023/01/24 02:05:44;;;;;;;11.23;9.00;;;5.30;99.90;;;;;;5051503;28;20659;-55
2023/01/24 02:08:16;;;;;;;11.33;9.03;;;5.30;99.90;;;;;;5052260;28;20212;-55
2023/01/24 02:13:27;;;;;;;10.90;9.23;;;5.30;99.90;;;;;;5052064;28;20313;-55
2023/01/24 02:16:02;;;;;;;12.10;8.80;;;5.20;99.90;;;;;;5051980;28;20209;-54
2023/01/24 02:18:30;;;;;;;10.70;8.43;;;5.20;99.90;;;;;;5052271;28;20211;-54
2023/01/24 02:20:57;;;;;;;10.70;8.70;;;5.20;99.90;;;;;;5052366;28;20205;-55
2023/01/24 02:23:33;;;;;;;10.07;8.17;;;5.20;99.90;;;;;;5052347;28;20230;-54
2023/01/24 02:26:08;;;;;;;12.97;9.20;;;5.20;99.90;;;;;;5051933;28;20205;-54
2023/01/24 02:28:36;;;;;;;10.10;7.73;;;5.20;99.90;;;;;;5052190;28;20216;-54
2023/01/24 02:31:04;;;;;;;11.17;8.50;;;5.20;99.90;;;;;;5052172;28;20205;-54
2023/01/24 02:33:32;;;;;;;11.97;8.53;;;5.10;99.90;;;;;;5051994;28;20232;-54
2023/01/24 02:36:18;;;;;;;11.17;8.60;;;5.10;99.90;;;;;;5051726;28;20213;-54
2023/01/24 02:38:49;;;;;;;12.10;8.07;;;5.10;99.90;;;;;;5052097;28;20224;-54
2023/01/24 02:41:18;;;;;;;11.57;8.63;;;5.20;99.90;;;;;;5052296;28;20206;-55
2023/01/24 02:43:48;;;;;;;9.83;8.00;;;5.20;99.90;;;;;;5051833;28;20229;-54
2023/01/24 02:46:15;;;;;;;11.83;9.07;;;5.10;99.90;;;;;;5051811;28;20233;-54
2023/01/24 02:48:41;;;;;;;10.93;8.23;;;5.20;99.90;;;;;;5051680;28;20721;-54
2023/01/24 02:53:53;;;;;;;10.40;8.53;;;5.20;99.90;;;;;;5051763;28;20608;-54
2023/01/24 02:59:05;;;;;;;12.70;9.07;;;5.30;99.90;;;;;;5051777;28;20209;-54
2023/01/24 03:01:32;;;;;;;11.33;8.47;;;5.20;99.90;;;;;;5051741;28;20677;-54
2023/01/24 03:03:59;;;;;;;10.60;8.60;;;5.30;99.90;;;;;;5051743;28;20273;-54
2023/01/24 03:06:25;;;;;;;10.90;8.57;;;5.30;99.90;;;;;;5051422;28;20206;-54
2023/01/24 03:08:52;;;;;;;12.07;9.20;;;5.40;99.90;;;;;;5051680;28;20209;-55
2023/01/24 03:11:20;;;;;;;11.10;8.97;;;5.40;99.90;;;;;;5051692;28;20228;-55
2023/01/24 03:35:53;;;;;;;13.17;10.03;;;5.30;99.90;;;;;;5054641;28;20205;-55
2023/01/24 03:41:06;;;;;;;14.10;10.47;;;5.20;99.90;;;;;;5054807;28;20205;-56
2023/01/24 03:43:34;;;;;;;12.70;9.53;;;5.10;99.90;;;;;;5054635;28;20225;-55
2023/01/24 03:46:01;;;;;;;13.17;10.33;;;5.10;99.90;;;;;;5054689;28;20205;-55
2023/01/24 03:48:36;;;;;;;13.27;10.17;;;5.00;99.90;;;;;;5054888;28;20300;-55
2023/01/24 03:53:47;;;;;;;14.30;10.70;;;4.80;99.90;;;;;;5054577;28;20241;-55
2023/01/24 03:56:14;;;;;;;13.70;10.17;;;4.80;99.90;;;;;;5054393;28;20221;-55
2023/01/24 03:58:42;;;;;;;14.80;11.07;;;4.70;99.90;;;;;;5054681;28;20209;-55
2023/01/24 04:01:09;;;;;;;14.47;10.80;;;4.70;99.90;;;;;;5054920;28;20209;-55
2023/01/24 04:03:35;;;;;;;13.83;9.97;;;4.70;99.90;;;;;;5054332;28;20229;-55
2023/01/24 04:06:02;;;;;;;14.17;10.47;;;4.70;99.90;;;;;;5054186;28;20205;-55
2023/01/24 04:08:29;;;;;;;14.30;10.33;;;4.70;99.90;;;;;;5054402;28;20205;-54
2023/01/24 04:10:56;;;;;;;13.73;9.70;;;4.60;99.90;;;;;;5054351;28;20206;-55
2023/01/24 04:13:23;;;;;;;15.40;10.60;;;4.60;99.90;;;;;;5054148;28;20229;-55
2023/01/24 04:15:51;;;;;;;14.57;10.10;;;4.70;99.90;;;;;;5053916;28;20210;-55
2023/01/24 04:18:18;;;;;;;13.97;10.33;;;4.70;99.90;;;;;;5054054;28;20202;-55
2023/01/24 04:20:45;;;;;;;15.43;11.10;;;4.70;99.90;;;;;;5054204;28;20216;-55
2023/01/24 04:23:12;;;;;;;14.20;11.07;;;4.70;99.90;;;;;;5053990;28;20202;-55
2023/01/24 04:25:38;;;;;;;14.63;10.60;;;4.80;99.90;;;;;;5053891;28;20240;-55
2023/01/24 04:28:05;;;;;;;13.87;10.40;;;4.80;99.90;;;;;;5053925;28;20209;-55
2023/01/24 04:30:32;;;;;;;15.70;11.73;;;4.90;99.90;;;;;;5053989;28;20220;-54
2023/01/24 04:33:00;;;;;;;13.27;9.97;;;4.90;99.90;;;;;;5053617;28;20222;-55
2023/01/24 04:35:29;;;;;;;15.13;10.97;;;4.90;99.90;;;;;;5053867;28;20217;-55
2023/01/24 04:37:59;;;;;;;14.67;11.00;;;4.90;99.90;;;;;;5053631;28;20201;-55
2023/01/24 04:40:26;;;;;;;16.03;11.07;;;4.90;99.90;;;;;;5053798;28;20682;-54
2023/01/24 04:42:55;;;;;;;16.37;11.80;;;4.90;99.90;;;;;;5053787;28;20206;-54
2023/01/24 04:45:21;;;;;;;16.03;11.03;;;4.80;99.90;;;;;;5053285;28;20201;-55
2023/01/24 04:47:48;;;;;;;14.87;10.73;;;4.80;99.90;;;;;;5053635;28;20264;-54
2023/01/24 04:50:16;;;;;;;16.90;11.93;;;4.80;99.90;;;;;;5053311;28;20217;-54
2023/01/24 04:52:43;;;;;;;14.37;10.70;;;4.90;99.90;;;;;;5053270;28;20221;-54
2023/01/24 04:55:10;;;;;;;13.23;10.07;;;5.00;99.90;;;;;;5052973;28;20737;-55
2023/01/24 04:57:37;;;;;;;15.23;10.87;;;4.90;99.90;;;;;;5053446;28;20217;-55
2023/01/24 05:00:04;;;;;;;14.53;10.90;;;4.90;99.90;;;;;;5052960;28;20210;-55
2023/01/24 05:02:32;;;;;;;17.17;11.60;;;4.90;99.90;;;;;;5053276;28;20229;-55
2023/01/24 05:04:59;;;;;;;14.23;10.77;;;4.80;99.90;;;;;;5052719;28;20252;-54
2023/01/24 05:07:27;;;;;;;15.47;11.57;;;4.90;99.90;;;;;;5053147;28;20213;-55
2023/01/24 05:09:53;;;;;;;15.43;11.37;;;4.90;99.90;;;;;;5053234;28;20209;-55
2023/01/24 05:12:20;;;;;;;15.57;11.30;;;4.80;99.90;;;;;;5052947;28;20213;-55
2023/01/24 05:14:47;;;;;;;18.00;12.83;;;4.80;99.90;;;;;;5052577;28;20596;-55
2023/01/24 05:17:13;;;;;;;17.97;12.23;;;4.90;99.90;;;;;;5053233;28;20213;-56
2023/01/24 05:19:40;;;;;;;16.70;12.23;;;4.90;99.90;;;;;;5052724;28;20669;-55
2023/01/24 05:22:07;;;;;;;16.27;11.43;;;4.90;99.90;;;;;;5053042;28;20213;-55
2023/01/24 05:24:35;;;;;;;15.07;11.47;;;4.90;99.90;;;;;;5052812;28;20645;-56
2023/01/24 05:27:02;;;;;;;17.40;12.47;;;4.90;99.90;;;;;;5052618;28;20212;-55
2023/01/24 05:29:28;;;;;;;15.90;11.90;;;4.90;99.90;;;;;;5052941;28;20206;-54
2023/01/24 05:31:55;;;;;;;17.73;11.63;;;4.90;99.90;;;;;;5052825;28;20201;-54
2023/01/24 05:34:22;;;;;;;17.43;12.10;;;4.90;99.90;;;;;;5052487;28;20241;-55
2023/01/24 05:36:48;;;;;;;19.80;13.23;;;4.90;99.90;;;;;;5052602;28;20632;-54
2023/01/24 05:39:15;;;;;;;16.50;11.90;;;4.90;99.90;;;;;;5052072;28;20206;-54
2023/01/24 05:41:43;;;;;;;17.27;11.97;;;4.90;99.90;;;;;;5052545;28;20201;-55
2023/01/24 05:44:10;;;;;;;18.03;12.50;;;4.80;99.90;;;;;;5052299;28;20597;-54
2023/01/24 05:46:37;;;;;;;18.70;12.97;;;4.70;99.90;;;;;;5052349;28;20754;-54
2023/01/24 05:49:03;;;;;;;17.10;11.93;;;4.70;99.90;;;;;;5052372;28;20212;-54
2023/01/24 05:51:30;;;;;;;15.93;11.73;;;4.70;99.90;;;;;;5052724;28;20213;-55
2023/01/24 05:53:57;;;;;;;16.80;12.13;;;4.80;99.90;;;;;;5052520;28;20239;-54
2023/01/24 05:56:24;;;;;;;15.03;10.63;;;4.70;99.90;;;;;;5052429;28;20217;-54
2023/01/24 05:58:52;;;;;;;14.47;10.50;;;4.70;99.90;;;;;;5052682;28;20202;-55
2023/01/24 06:01:21;;;;;;;16.50;11.83;;;4.70;99.90;;;;;;5053180;28;20206;-55
2023/01/24 06:03:49;;;;;;;17.70;11.03;;;4.80;99.90;;;;;;5053085;28;20217;-54
2023/01/24 06:06:18;;;;;;;14.93;10.43;;;4.90;99.90;;;;;;5052538;28;20205;-54
2023/01/24 06:08:45;;;;;;;16.07;11.93;;;4.90;99.90;;;;;;5052689;28;20209;-54
2023/01/24 06:11:14;;;;;;;14.70;10.93;;;5.00;99.90;;;;;;5052765;28;20209;-54
2023/01/24 06:13:41;;;;;;;14.77;10.53;;;5.00;99.90;;;;;;5052541;28;20229;-55
2023/01/24 06:16:12;;;;;;;14.13;10.13;;;5.10;99.90;;;;;;5052805;28;20213;-55
2023/01/24 06:18:40;;;;;;;15.73;10.37;;;5.00;99.90;;;;;;5052871;28;20210;-55
2023/01/24 06:21:09;;;;;;;13.63;9.53;;;5.00;99.90;;;;;;5052777;28;20201;-55
2023/01/24 06:23:36;;;;;;;11.70;9.33;;;5.00;99.90;;;;;;5052703;28;20237;-55
2023/01/24 06:26:03;;;;;;;13.73;9.80;;;5.00;99.90;;;;;;5053277;28;20217;-54
2023/01/24 06:28:31;;;;;;;14.60;9.80;;;5.00;99.90;;;;;;5052717;28;20205;-55
2023/01/24 06:31:04;;;;;;;14.37;9.87;;;5.00;99.90;;;;;;5052851;28;20216;-55
2023/01/24 06:33:42;;;;;;;12.10;9.23;;;5.10;99.90;;;;;;5052631;28;20320;-55
2023/01/24 06:36:26;;;;;;;13.30;9.20;;;5.10;99.90;;;;;;5052306;28;20205;-55
2023/01/24 06:38:53;;;;;;;14.73;9.90;;;5.10;99.90;;;;;;5052940;28;20205;-55
2023/01/24 06:41:21;;;;;;;12.90;9.80;;;5.10;99.90;;;;;;5052733;28;20209;-55
2023/01/24 06:43:48;;;;;;;13.07;9.53;;;5.10;99.90;;;;;;5052637;28;20232;-55
2023/01/24 06:46:14;;;;;;;15.10;9.70;;;5.10;99.90;;;;;;5052336;28;20213;-55
2023/01/24 06:48:45;;;;;;;17.00;10.77;;;5.10;99.90;;;;;;5052606;28;20296;-55
2023/01/24 06:51:13;;;;;;;14.67;10.90;;;5.20;99.90;;;;;;5053213;28;20673;-55
2023/01/24 06:53:40;;;;;;;16.17;11.43;;;5.20;99.90;;;;;;5056297;28;20284;-55
2023/01/24 06:56:08;;;;;;;14.97;10.83;;;5.10;99.90;;;;;;5055878;28;20209;-55
2023/01/24 06:58:35;;;;;;;14.73;10.13;;;5.10;99.90;;;;;;5056278;28;20205;-55
2023/01/24 07:01:02;;;;;;;15.13;9.97;;;5.10;99.90;;;;;;5055553;28;20209;-55
2023/01/24 07:03:28;;;;;;;14.87;10.83;;;5.10;99.90;;;;;;5055968;28;20229;-55
2023/01/24 07:05:56;;;;;;;15.00;10.70;;;5.00;99.90;;;;;;5055405;28;20209;-55
2023/01/24 07:08:23;;;;;;;16.27;10.73;;;5.00;99.90;;;;;;5055580;28;20666;-55
2023/01/24 07:10:50;;;;;;;15.13;10.63;;;4.90;99.90;;;;;;5055694;28;20229;-56
2023/01/24 07:13:16;;;;;;;13.70;9.60;;;4.90;99.90;;;;;;5054896;28;20743;-55
2023/01/24 07:15:43;;;;;;;14.93;10.60;;;4.90;99.90;;;;;;5054925;28;20677;-55
2023/01/24 07:18:13;;;;;;;15.23;10.60;;;4.80;99.90;;;;;;5055271;28;20216;-55
2023/01/24 07:20:40;;;;;;;14.13;9.70;;;4.80;99.90;;;;;;5055329;28;20212;-55
2023/01/24 07:23:19;;;;;;;16.73;11.00;;;4.70;99.90;;;;;;5055004;28;20210;-56
2023/01/24 07:25:46;;;;;;;12.90;9.67;;;4.80;99.90;;;;;;5054989;28;20205;-55
2023/01/24 07:28:14;;;;;;;13.03;9.60;;;4.60;99.90;;;;;;5054986;28;20696;-55
2023/01/24 07:30:40;;;;;;;13.40;10.20;;;4.60;99.90;;;;;;5055178;28;20201;-55
2023/01/24 07:33:07;;;;;;;16.40;9.97;;;4.70;99.90;;;;;;5054990;28;20236;-55
2023/01/24 07:35:34;;;;;;;14.60;10.77;;;4.70;99.90;;;;;;5054643;28;20226;-55
2023/01/24 07:38:01;;;;;;;15.50;10.37;;;4.70;99.90;;;;;;5054756;28;20255;-55
2023/01/24 07:40:29;;;;;;;13.67;10.27;;;4.80;99.90;;;;;;5054820;28;20202;-55
2023/01/24 07:42:55;;;;;;;14.13;10.10;;;4.70;99.90;;;;;;5054751;28;20267;-55
2023/01/24 07:45:22;;;;;;;14.60;10.60;;;4.80;99.90;;;;;;5054661;28;20202;-56
2023/01/24 07:47:49;;;;;;;15.87;11.57;;;4.70;99.90;;;;;;5054701;28;20213;-55
2023/01/24 07:50:16;;;;;;;15.77;11.07;;;4.80;99.90;;;;;;5054866;28;20206;-55
2023/01/24 07:52:43;;;;;;;15.37;10.73;;;4.80;99.90;;;;;;5054621;28;20217;-56
2023/01/24 07:55:11;;;;;;;16.73;10.47;;;4.90;99.90;;;;;;5053724;28;20221;-54
2023/01/24 07:57:39;;;;;;;15.73;10.73;;;4.90;99.90;;;;;;5054384;28;20201;-54
2023/01/24 08:00:07;;;;;;;14.70;10.33;;;4.90;99.90;;;;;;5054436;28;20205;-54
2023/01/24 08:02:33;;;;;;;14.33;10.43;;;4.80;99.90;;;;;;5054178;28;20212;-54
2023/01/24 08:05:00;;;;;;;14.87;10.37;;;4.80;99.90;;;;;;5054043;28;20229;-54
2023/01/24 08:07:27;;;;;;;12.77;9.67;;;4.80;99.90;;;;;;5054087;28;20209;-54
2023/01/24 08:09:53;;;;;;;17.43;11.97;;;4.80;99.90;;;;;;5054319;28;20206;-54
2023/01/24 08:12:21;;;;;;;13.00;10.13;;;4.80;99.90;;;;;;5054391;28;20201;-54
2023/01/24 08:14:49;;;;;;;17.37;10.00;;;4.90;99.90;;;;;;5053598;28;20703;-54
2023/01/24 08:17:16;;;;;;;15.37;10.40;;;5.00;99.90;;;;;;5053923;28;20221;-54
2023/01/24 08:19:43;;;;;;;16.03;10.87;;;4.90;99.90;;;;;;5054321;28;20205;-59
2023/01/24 08:22:10;;;;;;;12.67;9.27;;;5.00;99.90;;;;;;5053862;28;20210;-54
2023/01/24 08:24:37;;;;;;;13.10;9.77;;;5.00;99.90;;;;;;5054304;28;20751;-54
2023/01/24 08:27:05;;;;;;;13.70;9.77;;;5.10;99.90;;;;;;5053812;28;20218;-54
2023/01/24 08:29:32;;;;;;;12.43;9.00;;;5.00;99.90;;;;;;5054074;28;20205;-54
2023/01/24 08:32:00;;;;;;;14.40;9.97;;;5.00;99.90;;;;;;5053944;28;20689;-54
2023/01/24 08:34:27;;;;;;;13.27;9.43;;;5.10;99.90;;;;;;5053676;28;20278;-54
2023/01/24 08:36:53;;;;;;;13.80;9.97;;;5.20;99.90;;;;;;5053472;28;20214;-54
2023/01/24 08:39:20;;;;;;;11.20;8.90;;;5.30;99.90;;;;;;5053656;28;20202;-54
2023/01/24 08:41:47;;;;;;;13.77;9.80;;;5.40;99.90;;;;;;5054076;28;20686;-54
2023/01/24 08:44:14;;;;;;;13.47;9.17;;;5.40;99.90;;;;;;5053923;28;20222;-55
2023/01/24 08:46:41;;;;;;;11.17;8.80;;;5.40;99.90;;;;;;5053492;28;20259;-54
2023/01/24 08:49:10;;;;;;;13.43;8.77;;;5.40;99.90;;;;;;5053314;28;20653;-54
2023/01/24 08:51:37;;;;;;;13.13;8.97;;;5.40;99.90;;;;;;5053595;28;20210;-54
2023/01/24 08:54:05;;;;;;;11.23;8.37;;;5.40;99.90;;;;;;5053308;28;20233;-54
2023/01/24 08:56:32;;;;;;;14.17;9.83;;;5.40;99.90;;;;;;5053516;28;20230;-54
2023/01/24 08:58:59;;;;;;;13.80;9.30;;;5.50;99.90;;;;;;5053215;28;20560;-54
2023/01/24 09:01:26;;;;;;;13.13;10.07;;;5.50;99.90;;;;;;5053343;28;20216;-54
2023/01/24 09:03:54;;;;;;;13.73;9.53;;;5.60;99.90;;;;;;5053140;28;20356;-54
2023/01/24 09:06:23;;;;;;;15.07;9.67;;;5.90;99.90;;;;;;5052971;28;20280;-55
2023/01/24 09:08:53;;;;;;;12.93;9.10;;;6.00;99.90;;;;;;5053477;28;20213;-55
2023/01/24 09:11:20;;;;;;;12.93;9.37;;;6.10;99.90;;;;;;5053257;28;20213;-55
2023/01/24 09:13:46;;;;;;;12.30;8.97;;;6.00;99.90;;;;;;5052773;28;20229;-55
2023/01/24 09:16:13;;;;;;;11.80;8.77;;;6.00;99.90;;;;;;5052730;28;20689;-55
2023/01/24 09:18:40;;;;;;;11.50;8.63;;;6.00;99.90;;;;;;5053027;28;20213;-55
2023/01/24 09:21:07;;;;;;;13.43;9.10;;;6.00;99.90;;;;;;5052883;28;20573;-55
2023/01/24 09:23:35;;;;;;;10.20;7.63;;;5.90;99.90;;;;;;5052721;28;20237;-55
2023/01/24 09:26:01;;;;;;;10.83;7.73;;;5.80;99.90;;;;;;5052529;28;20206;-55
2023/01/24 09:28:28;;;;;;;11.80;8.03;;;5.80;99.90;;;;;;5052696;28;20212;-55
2023/01/24 09:30:55;;;;;;;11.53;8.20;;;5.70;99.90;;;;;;5052706;28;20212;-55
2023/01/24 09:33:22;;;;;;;12.23;7.70;;;5.70;99.90;;;;;;5052877;28;20232;-55
2023/01/24 09:35:53;;;;;;;10.33;7.30;;;5.70;99.90;;;;;;5052541;28;20225;-55
2023/01/24 09:38:22;;;;;;;10.90;7.70;;;5.70;99.90;;;;;;5052891;28;20269;-55
2023/01/24 09:40:57;;;;;;;10.43;8.00;;;5.80;99.90;;;;;;5052680;28;20260;-55
2023/01/24 09:43:40;;;;;;;11.07;7.83;;;5.90;99.90;;;;;;5052446;28;20225;-56
2023/01/24 09:46:17;;;;;;;10.30;7.70;;;6.00;99.90;;;;;;5052020;28;20617;-56
2023/01/24 09:48:45;;;;;;;10.13;7.17;;;6.10;99.90;;;;;;5052378;28;20205;-54
2023/01/24 09:51:18;;;;;;;11.90;8.03;;;6.20;99.90;;;;;;5052384;28;20244;-54
2023/01/24 09:53:48;;;;;;;9.77;7.60;;;6.20;99.90;;;;;;5052314;28;20230;-55
2023/01/24 09:56:26;;;;;;;9.53;7.40;;;6.20;99.90;;;;;;5052447;28;20236;-55
2023/01/24 09:59:10;;;;;;;11.87;7.03;;;6.20;99.90;;;;;;5052493;28;20212;-55
2023/01/24 10:01:40;;;;;;;10.20;7.40;;;6.20;99.90;;;;;;5052496;28;20214;-55
2023/01/24 10:04:14;;;;;;;10.90;7.50;;;6.20;99.90;;;;;;5052388;28;20236;-55
2023/01/24 10:06:52;;;;;;;9.13;7.27;;;6.30;99.90;;;;;;5052184;28;20205;-55
2023/01/24 10:09:26;;;;;;;9.00;6.63;;;6.50;99.90;;;;;;5052433;28;20209;-55
2023/01/24 10:12:05;;;;;;;8.77;7.07;;;6.60;99.90;;;;;;5052296;28;20212;-55
2023/01/24 10:14:51;;;;;;;10.90;7.30;;;6.60;99.90;;;;;;5051970;28;20693;-55
2023/01/24 10:17:39;;;;;;;8.63;6.87;;;6.60;99.90;;;;;;5052257;28;20213;-55
2023/01/24 10:20:17;;;;;;;10.00;6.30;;;6.70;99.90;;;;;;5052203;28;20209;-55
2023/01/24 10:23:05;;;;;;;10.07;7.17;;;6.80;99.90;;;;;;5052203;28;20670;-58
2023/01/24 10:25:39;;;;;;;10.13;6.57;;;6.90;99.90;;;;;;5055836;28;20575;-57
2023/01/24 10:28:18;;;;;;;9.27;6.90;;;6.90;99.90;;;;;;5058456;28;20213;-56
2023/01/24 10:30:53;;;;;;;9.57;6.80;;;7.00;99.90;;;;;;5058329;28;20215;-56
2023/01/24 10:33:21;;;;;;;9.70;7.30;;;7.30;99.90;;;;;;5057916;28;20725;-56
2023/01/24 10:35:57;;;;;;;9.13;6.70;;;7.40;99.90;;;;;;5058386;28;20225;-56
2023/01/24 10:38:25;;;;;;;8.80;6.73;;;7.40;99.90;;;;;;5058224;28;20315;-57
2023/01/24 10:40:54;;;;;;;9.67;6.37;;;7.30;99.90;;;;;;5058326;28;20231;-56
2023/01/24 10:43:25;;;;;;;8.47;6.87;;;7.30;99.90;;;;;;5057321;28;20232;-57
2023/01/24 10:46:04;;;;;;;8.80;6.70;;;7.30;99.90;;;;;;5057186;28;20224;-56
2023/01/24 10:48:40;;;;;;;9.23;6.53;;;7.40;99.90;;;;;;5057526;28;20220;-55
2023/01/24 10:51:16;;;;;;;8.20;6.57;;;7.40;99.90;;;;;;5057548;28;20251;-57
2023/01/24 10:53:43;;;;;;;7.03;6.20;;;7.50;99.90;;;;;;5057146;28;20282;-56
2023/01/24 10:56:10;;;;;;;10.77;6.70;;;7.60;99.90;;;;;;5057407;28;20221;-57
2023/01/24 10:58:42;;;;;;;10.45;7.97;;;7.80;99.90;;;;;;5054789;28;20443;-66
2023/01/24 11:01:19;;;;;;;8.50;7.03;;;8.10;99.90;;;;;;5055838;28;20213;-58
2023/01/24 11:03:47;;;;;;;9.40;7.23;;;8.30;99.90;;;;;;5064227;28;20614;-58
2023/01/24 11:06:29;;;;;;;9.07;7.00;;;8.50;99.90;;;;;;5074334;28;20201;-59
2023/01/24 11:09:02;;;;;;;8.43;6.67;;;8.50;99.90;;;;;;5077027;28;20216;-60
2023/01/24 11:11:31;;;;;;;9.17;7.00;;;8.50;99.90;;;;;;5075432;28;20630;-62
2023/01/24 11:14:01;;;;;;;9.37;6.77;;;8.40;99.90;;;;;;5075103;28;20235;-59
2023/01/24 11:16:33;;;;;;;8.63;6.63;;;8.20;99.90;;;;;;5078652;28;20232;-61
2023/01/24 11:19:02;;;;;;;9.77;6.93;;;7.80;99.90;;;;;;5079206;28;20204;-61
2023/01/24 11:21:30;;;;;;;10.27;7.00;;;7.50;99.90;;;;;;5074951;28;20213;-59
2023/01/24 11:24:02;;;;;;;10.87;7.13;;;7.20;99.90;;;;;;5076344;28;20232;-62
2023/01/24 11:26:31;;;;;;;8.97;7.17;;;7.10;99.90;;;;;;5077459;28;20675;-63
2023/01/24 11:29:01;;;;;;;10.53;7.43;;;6.90;99.90;;;;;;5078429;28;20839;-62
2023/01/24 11:31:36;;;;;;;9.70;6.70;;;6.90;99.90;;;;;;5077297;28;20219;-62
2023/01/24 11:34:25;;;;;;;10.53;7.20;;;6.80;99.90;;;;;;5078672;28;20228;-62
2023/01/24 11:37:01;;;;;;;13.70;7.37;;;6.90;99.90;;;;;;5076564;28;20221;-61
2023/01/24 11:39:37;;;;;;;10.30;7.23;;;6.90;99.90;;;;;;5078089;28;20239;-63
2023/01/24 11:42:14;;;;;;;8.80;6.77;;;6.90;99.90;;;;;;5077014;28;20204;-62
2023/01/24 11:45:03;;;;;;;9.40;6.97;;;6.90;99.90;;;;;;5077056;28;20224;-61
2023/01/24 11:47:34;;;;;;;10.53;7.57;;;6.80;99.90;;;;;;5076071;28;20228;-60
2023/01/24 11:50:23;;;;;;;8.70;6.77;;;6.80;99.90;;;;;;5075789;28;20208;-60
2023/01/24 11:52:59;;;;;;;10.63;7.73;;;6.90;99.90;;;;;;5063704;28;20212;-62
2023/01/24 11:55:40;;;;;;;11.60;7.50;;;7.00;99.90;;;;;;5075646;28;20357;-62
2023/01/24 11:58:28;;;;;;;11.30;6.77;;;7.00;99.90;;;;;;5075953;28;20274;-61
2023/01/24 12:01:01;;;;;;;9.50;7.30;;;7.00;99.90;;;;;;5072238;28;20201;-63
2023/01/24 12:03:48;;;;;;;11.83;7.63;;;7.00;99.90;;;;;;5076887;28;20232;-61
2023/01/24 12:06:26;;;;;;;9.63;6.90;;;7.10;99.90;;;;;;5075204;28;20213;-62
2023/01/24 12:09:09;;;;;;;10.00;6.97;;;7.20;99.90;;;;;;5076451;28;20556;-63
2023/01/24 12:11:40;;;;;;;11.73;6.70;;;7.20;99.90;;;;;;5076287;28;20209;-61
2023/01/24 12:14:30;;;;;;;8.60;6.73;;;7.20;99.90;;;;;;5076751;28;20221;-59
2023/01/24 12:17:05;;;;;;;8.13;6.53;;;7.10;99.90;;;;;;5035742;28;20233;-60
2023/01/24 12:19:44;;;;;;;9.20;6.83;;;7.00;99.90;;;;;;5075972;28;20254;-60
2023/01/24 12:22:15;;;;;;;8.57;6.30;;;7.10;99.90;;;;;;5075443;28;20215;-60
2023/01/24 12:24:46;;;;;;;9.37;6.50;;;7.20;99.90;;;;;;5074694;28;20241;-60
2023/01/24 12:27:16;;;;;;;9.23;6.73;;;7.20;99.90;;;;;;5075273;28;20208;-60
2023/01/24 12:29:47;;;;;;;9.30;7.10;;;7.20;99.90;;;;;;5075985;28;20212;-63
2023/01/24 12:32:22;;;;;;;9.77;6.20;;;7.10;99.90;;;;;;5075826;28;20216;-64
2023/01/24 12:34:56;;;;;;;8.97;6.40;;;7.10;99.90;;;;;;5075918;28;20224;-63
2023/01/24 12:37:28;;;;;;;10.70;6.10;;;7.00;99.90;;;;;;5075702;28;20204;-61
2023/01/24 12:40:01;;;;;;;9.77;6.50;;;7.10;99.90;;;;;;5075951;28;20722;-62
2023/01/24 12:42:45;;;;;;;8.90;6.00;;;7.10;99.90;;;;;;5076437;28;20215;-61
2023/01/24 12:45:17;;;;;;;8.50;6.20;;;7.10;99.90;;;;;;5074381;28;20217;-63
2023/01/24 12:47:49;;;;;;;13.10;6.87;;;6.90;99.90;;;;;;5075860;28;20208;-61
2023/01/24 12:50:26;;;;;;;11.80;6.60;;;6.70;99.90;;;;;;5073826;28;20205;-60
2023/01/24 12:53:06;;;;;;;13.73;8.20;;;6.60;99.90;;;;;;5074229;28;20680;-60
2023/01/24 12:55:37;;;;;;;8.90;6.40;;;6.60;99.90;;;;;;5073657;28;20260;-59
2023/01/24 12:58:10;;;;;;;8.70;6.60;;;6.60;99.90;;;;;;5075457;28;20220;-57
2023/01/24 13:00:50;;;;;;;10.50;7.33;;;6.60;99.90;;;;;;5073595;28;20216;-57
2023/01/24 13:03:39;;;;;;;13.23;6.90;;;6.50;99.90;;;;;;5073503;28;20235;-57
2023/01/24 13:06:14;;;;;;;11.40;6.80;;;6.40;99.90;;;;;;5073286;28;20262;-56
2023/01/24 13:08:51;;;;;;;9.63;6.57;;;6.40;99.90;;;;;;5073519;28;20208;-57
2023/01/24 13:11:21;;;;;;;9.27;6.83;;;6.40;99.90;;;;;;5073428;28;20208;-58
2023/01/24 13:14:02;;;;;;;8.10;6.07;;;6.40;99.90;;;;;;5073539;28;20229;-56
2023/01/24 13:16:58;;;;;;;10.73;6.87;;;6.30;99.90;;;;;;5073366;28;20707;-56
2023/01/24 13:19:49;;;;;;;7.93;6.03;;;6.10;99.90;;;;;;5073224;28;20676;-56
2023/01/24 13:22:32;;;;;;;9.17;6.47;;;6.00;99.90;;;;;;5072991;28;20201;-57
2023/01/24 13:25:09;;;;;;;11.40;7.27;;;6.00;99.90;;;;;;5072832;28;20239;-57
2023/01/24 13:27:43;;;;;;;10.23;6.27;;;6.10;99.90;;;;;;5073424;28;20201;-56
2023/01/24 13:30:20;;;;;;;10.40;6.33;;;6.10;99.90;;;;;;5073171;28;20664;-58
2023/01/24 13:32:49;;;;;;;8.57;6.30;;;6.10;99.90;;;;;;5073205;28;20215;-57
2023/01/24 13:35:19;;;;;;;8.97;6.77;;;6.20;99.90;;;;;;5072911;28;20225;-57
2023/01/24 13:37:54;;;;;;;9.53;6.80;;;6.10;99.90;;;;;;5072829;28;20213;-57
2023/01/24 13:40:28;;;;;;;9.87;6.83;;;6.00;99.90;;;;;;5072981;28;20208;-55